LSZC 200120Z AUTO 27006KT 9999 BKN140 16/13 Q1025 LSZC 200050Z AUTO 24004KT 210V270 9999 FEW120 16/13 Q1025 LSZC 200020Z AUTO 25004KT 220V280 9999 OVC140 16/13 Q1025 LSZC 192350Z AUTO 24004KT 9999 FEW120 OVC140 16/13 Q1025 LSZC 192320Z AUTO 25005KT 9999 FEW120 SCT130 16/13 Q1025 LSZC 192250Z AUTO 23005KT 9999 BKN120 16/14 Q1025 LSZC 192220Z AUTO 27004KT 230V290 9999 BKN120 17/13 Q1025 LSZC 192150Z AUTO 26004KT 210V290 9999 BKN120 17/13 Q1025 LSZC 192120Z AUTO 26005KT 9999 BKN130 17/13 Q1025 LSZC 192050Z AUTO 23003KT 200V270 9999 NCD 16/14 Q1025 LSZC 192020Z AUTO 25004KT 210V300 9999 NCD 18/13 Q1025 LSZC 191950Z AUTO 26004KT 210V290 9999 NCD 17/14 Q1024 LSZC 191920Z AUTO 25005KT 210V290 9999 NCD 18/14 Q1024 LSZC 191850Z AUTO 20004KT 140V320 9999 NCD 19/14 Q1024 LSZC 191820Z AUTO VRB02KT 9999 //////TCU 19/15 Q1024 LSZC 191750Z AUTO VRB03KT 9999 FEW085 SCT095 //////TCU 20/15 Q1025 LSZC 191720Z AUTO 21006KT 160V250 9999 BKN080 BKN090 //////TCU 20/15 Q1025 LSZC 191650Z AUTO 18012KT 140V220 9999 SCT085 BKN095 SCT///CB 20/15 Q1025 RETSRA LSZC 191620Z AUTO 23009KT 200V260 9999 TSRA SCT080 BKN090 SCT///CB 21/16 Q1025 RETS LSZC 191550Z AUTO 26005KT 220V310 9999 -RA OVC085 SCT///CB 21/16 Q1024 LSZC 191520Z AUTO 22004KT 180V260 9999 SCT095 SCT///CB 21/16 Q1023 LSZC 191450Z VRB02KT 9999 -TSRA BKN095 SCT///CB 21/15 Q1024 RETS LSZC 191420Z 08009KT 9999 VCTS SCT110 BKN120 SCT///CB 21/14 Q1023 LSZC 191350Z 06010KT 9999 TS FEW140 SCT///CB 21/14 Q1023 LSZC 191320Z 07008KT 050V110 9999 TS FEW140 SCT///CB 23/14 Q1023 LSZC 191250Z 28006KT 250V330 9999 VCTS FEW050CB 23/16 Q1023 RETSRA LSZC 191220Z VRB03KT 9999 TS FEW050CB BKN130 23/18 Q1023 RETSRA LSZC 191150Z 27006KT 200V340 9999 RA VCTS BKN070 26/15 Q1023 LSZC 191120Z AUTO VRB03KT 9999 VCTS SCT085 BKN140 SCT///CB 26/14 Q1022 LSZC 191050Z AUTO 10005KT 060V130 9999 VCTS SCT///CB 27/15 Q1022 LSZC 191020Z AUTO 07004KT 040V120 9999 NCD 26/15 Q1023 LSZC 190950Z AUTO VRB02KT 9999 NCD 26/13 Q1023 LSZC 190920Z VRB02KT 9999 SCT070 24/14 Q1023 LSZC 190850Z 07004KT 040V110 9999 SCT070 23/15 Q1023 LSZC 190820Z 07005KT 9999 SCT070 23/15 Q1023 LSZC 190750Z VRB02KT 9999 SCT070 23/16 Q1023 LSZC 190720Z AUTO VRB03KT 9999 NCD 22/14 Q1023 LSZC 190650Z VRB03KT 9999 SCT070 21/15 Q1023 LSZC 190620Z AUTO VRB02KT 9999 NCD 19/14 Q1023 LSZC 190550Z 29003KT 9999 SCT070 18/14 Q1023 LSZC 190520Z AUTO 22004KT 9999 FEW080 BKN100 17/13 Q1023 LSZC 190450Z AUTO 24004KT 9999 SCT090 BKN100 16/13 Q1023 LSZC 190420Z AUTO 27003KT 9999 NCD 16/13 Q1022 LSZC 190350Z AUTO 23003KT 9999 FEW085 15/12 Q1022 LSZC 190320Z AUTO 24004KT 9999 NCD 15/12 Q1022 LSZC 190250Z AUTO 23003KT 9999 NCD 16/12 Q1022 LSZC 190220Z AUTO VRB03KT 9999 NCD 16/13 Q1022 LSZC 190150Z AUTO VRB02KT 9999 NCD 16/13 Q1022 LSZC 190120Z AUTO 25004KT 9999 NCD 17/13 Q1021 LSZC 190050Z AUTO VRB02KT 9999 NCD 16/13 Q1021 LSZC 190020Z AUTO 29002KT 9999 NCD 18/13 Q1021 LSZC 182350Z AUTO 24004KT 9999 NCD 17/13 Q1021 LSZC 182320Z AUTO 27004KT 9999 NCD 18/13 Q1021 LSZC 182250Z AUTO 24004KT 9999 NCD 18/13 Q1021 LSZC 182220Z AUTO 26004KT 9999 NCD 19/13 Q1021 LSZC 182150Z AUTO 25004KT 210V280 9999 NCD 19/13 Q1021 LSZC 182120Z AUTO 24003KT 190V300 9999 NCD 20/13 Q1021 LSZC 182050Z AUTO VRB02KT 9999 NCD 20/13 Q1021 LSZC 182020Z AUTO 25004KT 200V290 9999 NCD 21/13 Q1021 LSZC 181950Z AUTO 29005KT 250V320 9999 NCD 21/13 Q1020 LSZC 181920Z AUTO 26005KT 220V300 9999 NCD 21/14 Q1020 LSZC 181850Z AUTO 28005KT 240V300 9999 NCD 23/14 Q1020 LSZC 181820Z AUTO 28005KT 9999 NCD 23/14 Q1020 LSZC 181750Z AUTO 20006KT 9999 NCD 24/14 Q1020 LSZC 181720Z AUTO 34005KT 9999 NCD 26/13 Q1020 LSZC 181650Z AUTO 33004KT 300V020 9999 NCD 27/14 Q1020 LSZC 181620Z AUTO 01005KT 290V070 9999 NCD 27/12 Q1020 LSZC 181550Z AUTO 05006KT 010V170 9999 NCD 28/12 Q1020 LSZC 181520Z VRB04KT 9999 FEW070 28/12 Q1020 LSZC 181450Z VRB07KT 9999 FEW070 28/11 Q1020 LSZC 181420Z 03007KT 310V080 9999 FEW070 28/12 Q1020 LSZC 181350Z 03007KT 340V070 9999 FEW070 27/12 Q1020

METAR Messwerte "BUOCHS" LSZC

Zurück zur Übersicht

Ortsname
Ländercode / m ü. NN
Zeit Temperatur Taupunkt Rel.
Luftfeuchte
Luftdruck:
Altimeter
NN
Station
Wind in Beaufort
(Knoten)
Sichtweite
(Meter)
Wolken
(Meter über Grund)
Wettererscheinung
BUOCHS
CH 445
Fr 20.05. 03:20161382 %1025
1025
972
W 2 (6)>= 10000Stark bewölkt (4300) 
BUOCHS
CH 445
Fr 20.05. 02:50161382 %1025
1025
972
WSW 2 (4)
SSW - W
>= 10000Leicht bewölkt (3700) 
BUOCHS
CH 445
Fr 20.05. 02:20161382 %1025
1025
972
WSW 2 (4)
SW - W
>= 10000Bedeckt (4300) 
BUOCHS
CH 445
Fr 20.05. 01:50161382 %1025
1025
972
WSW 2 (4)>= 10000Bedeckt (4300)
Leicht bewölkt (3700)
 
BUOCHS
CH 445
Fr 20.05. 01:20161382 %1025
1025
972
WSW 2 (5)>= 10000Wolkig (4000)
Leicht bewölkt (3700)
 
BUOCHS
CH 445
Fr 20.05. 00:50161488 %1025
1025
972
SW 2 (5)>= 10000Stark bewölkt (3700) 
BUOCHS
CH 445
Fr 20.05. 00:20171377 %1025
1025
972
W 2 (4)
SW - WNW
>= 10000Stark bewölkt (3700) 
BUOCHS
CH 445
Do 19.05. 23:50171377 %1025
1025
972
W 2 (4)
SSW - WNW
>= 10000Stark bewölkt (3700) 
BUOCHS
CH 445
Do 19.05. 23:20171377 %1025
1025
972
W 2 (5)>= 10000Stark bewölkt (4000) 
BUOCHS
CH 445
Do 19.05. 22:50161488 %1025
1025
972
SW 2 (3)
SSW - W
>= 10000  
BUOCHS
CH 445
Do 19.05. 22:20181373 %1025
1025
972
WSW 2 (4)
SSW - WNW
>= 10000  
BUOCHS
CH 445
Do 19.05. 21:50171482 %1024
1024
971
W 2 (4)
SSW - WNW
>= 10000  
BUOCHS
CH 445
Do 19.05. 21:20181477 %1024
1024
971
WSW 2 (5)
SSW - WNW
>= 10000  
BUOCHS
CH 445
Do 19.05. 20:50191473 %1024
1023
971
SSW 2 (4)
SO - NW
>= 10000  
BUOCHS
CH 445
Do 19.05. 20:20191578 %1024
1023
971
Uml 1 (2)>= 10000  
BUOCHS
CH 445
Do 19.05. 19:50201573 %1025
1024
972
Uml 2 (3)>= 10000Wolkig (2900)
Leicht bewölkt (2600)
 
BUOCHS
CH 445
Do 19.05. 19:20201573 %1025
1024
972
SSW 2 (6)
SSO - WSW
>= 10000Stark bewölkt (2700)
Stark bewölkt (2400)
 
BUOCHS
CH 445
Do 19.05. 18:50201573 %1025
1024
972
S 4 (12)
SO - SW
>= 10000Stark bewölkt (2900)
Wolkig (2600)
 
BUOCHS
CH 445
Do 19.05. 18:20211673 %1025
1024
972
SW 3 (9)
SSW - W
>= 10000Stark bewölkt (2700)
Wolkig (2400)
Gewitter mit Regen
BUOCHS
CH 445
Do 19.05. 17:50211673 %1024
1023
971
W 2 (5)
SW - NW
>= 10000Bedeckt (2600)Regen (schwach)
BUOCHS
CH 445
Do 19.05. 17:20211673 %1023
1022
970
SW 2 (4)
S - W
>= 10000Wolkig (2900) 
BUOCHS
CH 445
Do 19.05. 16:50211569 %1024
1023
971
Uml 1 (2)>= 10000Stark bewölkt (2900)Gewitter mit Regen (schwach)
BUOCHS
CH 445
Do 19.05. 16:20211464 %1023
1022
970
O 3 (9)>= 10000Stark bewölkt (3700)
Wolkig (3400)
 
BUOCHS
CH 445
Do 19.05. 15:50211464 %1023
1022
970
ONO 3 (10)>= 10000Leicht bewölkt (4300) 
BUOCHS
CH 445
Do 19.05. 15:20231457 %1023
1022
970
ONO 3 (8)
NO - OSO
>= 10000Leicht bewölkt (4300) 
BUOCHS
CH 445
Do 19.05. 14:50231665 %1023
1022
970
W 2 (6)
WSW - NNW
>= 10000Leicht bewölkt Cb (1500) 
BUOCHS
CH 445
Do 19.05. 14:20231873 %1023
1022
970
Uml 2 (3)>= 10000Stark bewölkt (4000)
Leicht bewölkt Cb (1500)
 
BUOCHS
CH 445
Do 19.05. 13:50261551 %1023
1021
970
W 2 (6)
SSW - NNW
>= 10000Stark bewölkt (2100)Regen
BUOCHS
CH 445
Do 19.05. 13:20261448 %1022
1020
969
Uml 2 (3)>= 10000Stark bewölkt (4300)
Wolkig (2600)
 
BUOCHS
CH 445
Do 19.05. 12:50271548 %1022
1020
969
O 2 (5)
ONO - SO
>= 10000  
BUOCHS
CH 445
Do 19.05. 12:20261551 %1023
1021
970
ONO 2 (4)
NO - OSO
>= 10000  
BUOCHS
CH 445
Do 19.05. 11:50261345 %1023
1021
970
Uml 1 (2)>= 10000  
BUOCHS
CH 445
Do 19.05. 11:20241454 %1023
1021
970
Uml 1 (2)>= 10000Wolkig (2100) 
BUOCHS
CH 445
Do 19.05. 10:50231561 %1023
1022
970
ONO 2 (4)
NO - OSO
>= 10000Wolkig (2100) 
BUOCHS
CH 445
Do 19.05. 10:20231561 %1023
1022
970
ONO 2 (5)>= 10000Wolkig (2100) 
BUOCHS
CH 445
Do 19.05. 09:50231665 %1023
1022
970
Uml 1 (2)>= 10000Wolkig (2100) 
BUOCHS
CH 445
Do 19.05. 09:20221460 %1023
1022
970
Uml 2 (3)>= 10000  
BUOCHS
CH 445
Do 19.05. 08:50211569 %1023
1022
970
Uml 2 (3)>= 10000Wolkig (2100) 
BUOCHS
CH 445
Do 19.05. 08:20191473 %1023
1022
970
Uml 1 (2)>= 10000  
BUOCHS
CH 445
Do 19.05. 07:50181477 %1023
1023
970
WNW 2 (3)>= 10000Wolkig (2100) 
BUOCHS
CH 445
Do 19.05. 07:20171377 %1023
1023
970
SW 2 (4)>= 10000Stark bewölkt (3000)
Leicht bewölkt (2400)
 
BUOCHS
CH 445
Do 19.05. 06:50161382 %1023
1023
970
WSW 2 (4)>= 10000Stark bewölkt (3000)
Wolkig (2700)
 
BUOCHS
CH 445
Do 19.05. 06:20161382 %1022
1022
969
W 2 (3)>= 10000  
BUOCHS
CH 445
Do 19.05. 05:50151282 %1022
1022
969
SW 2 (3)>= 10000Leicht bewölkt (2600) 
BUOCHS
CH 445
Do 19.05. 05:20151282 %1022
1022
969
WSW 2 (4)>= 10000  
BUOCHS
CH 445
Do 19.05. 04:50161277 %1022
1022
969
SW 2 (3)>= 10000  
BUOCHS
CH 445
Do 19.05. 04:20161382 %1022
1022
969
Uml 2 (3)>= 10000  
BUOCHS
CH 445
Do 19.05. 03:50161382 %1022
1022
969
Uml 1 (2)>= 10000  
BUOCHS
CH 445
Do 19.05. 03:20171377 %1021
1021
968
WSW 2 (4)>= 10000  
BUOCHS
CH 445
Do 19.05. 02:50161382 %1021
1021
968
Uml 1 (2)>= 10000  
BUOCHS
CH 445
Do 19.05. 02:20181373 %1021
1021
968
WNW 1 (2)>= 10000  
BUOCHS
CH 445
Do 19.05. 01:50171377 %1021
1021
968
WSW 2 (4)>= 10000  
BUOCHS
CH 445
Do 19.05. 01:20181373 %1021
1021
968
W 2 (4)>= 10000  
BUOCHS
CH 445
Do 19.05. 00:50181373 %1021
1021
968
WSW 2 (4)>= 10000  
BUOCHS
CH 445
Do 19.05. 00:20191368 %1021
1020
968
W 2 (4)>= 10000  
BUOCHS
CH 445
Mi 18.05. 23:50191368 %1021
1020
968
WSW 2 (4)
SSW - W
>= 10000  
BUOCHS
CH 445
Mi 18.05. 23:20201364 %1021
1020
968
WSW 2 (3)
S - WNW
>= 10000  
BUOCHS
CH 445
Mi 18.05. 22:50201364 %1021
1020
968
Uml 1 (2)>= 10000  
BUOCHS
CH 445
Mi 18.05. 22:20211360 %1021
1020
968
WSW 2 (4)
SSW - WNW
>= 10000  
BUOCHS
CH 445
Mi 18.05. 21:50211360 %1020
1019
967
WNW 2 (5)
WSW - NW
>= 10000  
BUOCHS
CH 445
Mi 18.05. 21:20211464 %1020
1019
967
W 2 (5)
SW - WNW
>= 10000  
BUOCHS
CH 445
Mi 18.05. 20:50231457 %1020
1019
967
W 2 (5)
WSW - WNW
>= 10000  
BUOCHS
CH 445
Mi 18.05. 20:20231457 %1020
1019
967
W 2 (5)>= 10000  
BUOCHS
CH 445
Mi 18.05. 19:50241454 %1020
1018
967
SSW 2 (6)>= 10000  
BUOCHS
CH 445
Mi 18.05. 19:20261345 %1020
1018
967
NNW 2 (5)>= 10000  
BUOCHS
CH 445
Mi 18.05. 18:50271445 %1020
1018
967
NNW 2 (4)
WNW - NNO
>= 10000  
BUOCHS
CH 445
Mi 18.05. 18:20271239 %1020
1018
967
N 2 (5)
WNW - ONO
>= 10000  
BUOCHS
CH 445
Mi 18.05. 17:50281237 %1020
1018
967
NO 2 (6)
N - S
>= 10000  
BUOCHS
CH 445
Mi 18.05. 17:20281237 %1020
1018
967
Uml 2 (4)>= 10000Leicht bewölkt (2100) 
BUOCHS
CH 445
Mi 18.05. 16:50281135 %1020
1018
967
Uml 3 (7)>= 10000Leicht bewölkt (2100) 
BUOCHS
CH 445
Mi 18.05. 16:20281237 %1020
1018
967
NNO 3 (7)
NW - O
>= 10000Leicht bewölkt (2100) 
BUOCHS
CH 445
Mi 18.05. 15:50271239 %1020
1018
967
NNO 3 (7)
NNW - ONO
>= 10000Leicht bewölkt (2100) 

Altimeter: Einstellung am Altimeter (Höhenmesser), die Höhe 0 muss auf diesen Luftdruckwert zeigen, damit das Gerät die Stationshöhe richtig anzeigt.

NN: Luftdruck reduziert auf "Normal Null", auf Meereshöhe, dieser von der Temperatur abhängige Wert wird bisweilen unkorrekt einfach als "Luftdruck" bezeichnet. Eigentlich nur eine fiktive Größe, die es erlaubt, Stationen auf unterschiedlichen Höhen miteinander zu vergleichen.

Station: Realer Luftdruck an der Station.